145  
SHUS65 KGJT 022019  
FWOGJT  
 
DAILY FIRE WEATHER OBSERVATION  
NATIONAL WEATHER SERVICE GRAND JUNCTION CO  
214 PM MDT TUE JUN 2 2020  
 
STATE OF THE WEATHER (W) 1  
DRY BULB TEMPERATURE 91 DEGREES FAHRENHEIT  
RELATIVE HUMIDITY (RH) 6 PERCENT  
LIGHTNING ACTIVITY LEVEL  
(LAL - MIDNIGHT TO 2 PM) 1  
WIND DIRECTION 270 DEGREES (C IF CALM)  
WIND SPEED 8 MPH  
MAX TEMP (2 PM - 2 PM) 93 DEGREES FAHRENHEIT  
MIN TEMP (2 PM - 2 PM) 53 DEGREES FAHRENHEIT  
MAX RH (2 PM - 2 PM) 37 PERCENT  
MIN RH (2 PM - 2 PM) 6 PERCENT  
PCPN DURATION 0.0 HOURS  
PCPN AMT (2 PM - 2 PM) 0.0 INCHES  
LAL (2 PM - 2 PM) 1  
 

 
 
METAR KGJT 021953Z 25007KT 10SM CLR 33/M09 A3012 RMK AO2 SLP122  
T03281094  
 
CLICK HERE TO GO TO PREVIOUS BULLETINS.

The Nexlab CO Page
The Nexlab UT Page Main Text Page